AZU9577 SBSL-SBCJ
Flight info
| Callsign | AZU9577 |
|---|---|
| Flight time | N/A |
| Altitude | 38000 |
| Route | SATPU DCT ORIRO |
| Aircraft | A20N/M-SDE2E3FGHIRWXY/LB1 |
Departure
| Time | 2026-04-24 22:34 |
|---|---|
| Airport | Marechal Cunha Machado International Airport (SBSL) |
Arrival
| Time | N/A |
|---|---|
| Airport | Carajás Airport (SBCJ) |
| Time | Latitude | Longitude | Altitude | Speed | Heading |
|---|---|---|---|---|---|
| 2026-04-24 22:08 | -2.58466 | -44.23718 | 156 ft | 0 kts | 340° |
| 2026-04-24 22:21 | -2.58488 | -44.23711 | 156 ft | 3 kts | 340° |
| 2026-04-24 22:21 | -2.58512 | -44.23708 | 156 ft | 3 kts | 19° |
| 2026-04-24 22:21 | -2.58529 | -44.23724 | 156 ft | 3 kts | 70° |
| 2026-04-24 22:22 | -2.58530 | -44.23727 | 156 ft | 0 kts | 73° |
| 2026-04-24 22:23 | -2.58531 | -44.23727 | 156 ft | 0 kts | 70° |
| 2026-04-24 22:28 | -2.58531 | -44.23726 | 156 ft | 1 kts | 67° |
| 2026-04-24 22:28 | -2.58520 | -44.23698 | 155 ft | 6 kts | 72° |
| 2026-04-24 22:28 | -2.58504 | -44.23644 | 154 ft | 9 kts | 73° |
| 2026-04-24 22:28 | -2.58480 | -44.23566 | 152 ft | 13 kts | 72° |
| 2026-04-24 22:29 | -2.58490 | -44.23385 | 149 ft | 10 kts | 138° |
| 2026-04-24 22:29 | -2.58552 | -44.23408 | 149 ft | 10 kts | 218° |
| 2026-04-24 22:29 | -2.58607 | -44.23452 | 151 ft | 9 kts | 218° |
| 2026-04-24 22:30 | -2.58660 | -44.23494 | 152 ft | 10 kts | 220° |
| 2026-04-24 22:30 | -2.58729 | -44.23551 | 154 ft | 15 kts | 220° |
| 2026-04-24 22:30 | -2.58823 | -44.23631 | 156 ft | 19 kts | 221° |
| 2026-04-24 22:30 | -2.58936 | -44.23731 | 158 ft | 23 kts | 222° |
| 2026-04-24 22:31 | -2.59075 | -44.23841 | 161 ft | 26 kts | 217° |
| 2026-04-24 22:31 | -2.59228 | -44.23957 | 163 ft | 27 kts | 218° |
| 2026-04-24 22:31 | -2.59370 | -44.24071 | 165 ft | 24 kts | 219° |
| 2026-04-24 22:31 | -2.59500 | -44.24179 | 167 ft | 23 kts | 218° |
| 2026-04-24 22:32 | -2.59620 | -44.24276 | 168 ft | 18 kts | 225° |
| 2026-04-24 22:32 | -2.59688 | -44.24350 | 169 ft | 9 kts | 148° |
| 2026-04-24 22:32 | -2.59670 | -44.24308 | 169 ft | 0 kts | 38° |
| 2026-04-24 22:33 | -2.59667 | -44.24307 | 169 ft | 1 kts | 38° |
| 2026-04-24 22:33 | -2.59656 | -44.24297 | 168 ft | 3 kts | 38° |
| 2026-04-24 22:33 | -2.59633 | -44.24279 | 168 ft | 6 kts | 38° |
| 2026-04-24 22:33 | -2.59424 | -44.24117 | 166 ft | 74 kts | 40° |
| 2026-04-24 22:34 | -2.58847 | -44.23651 | 157 ft | 136 kts | 38° |
| 2026-04-24 22:34 | -2.57983 | -44.22970 | 305 ft | 168 kts | 38° |
| 2026-04-24 22:34 | -2.57050 | -44.22234 | 888 ft | 170 kts | 38° |
| 2026-04-24 22:34 | -2.56182 | -44.21534 | 1709 ft | 159 kts | 39° |
| 2026-04-24 22:35 | -2.55328 | -44.20842 | 2263 ft | 162 kts | 40° |
| 2026-04-24 22:35 | -2.54419 | -44.20105 | 2602 ft | 178 kts | 40° |
| 2026-04-24 22:35 | -2.53310 | -44.19409 | 2933 ft | 196 kts | 19° |
| 2026-04-24 22:35 | -2.51910 | -44.19436 | 3288 ft | 217 kts | 343° |
| 2026-04-24 22:36 | -2.50635 | -44.20396 | 3595 ft | 245 kts | 308° |
| 2026-04-24 22:36 | -2.49677 | -44.21868 | 4117 ft | 260 kts | 304° |
| 2026-04-24 22:36 | -2.48654 | -44.23436 | 4630 ft | 276 kts | 305° |
| 2026-04-24 22:36 | -2.47582 | -44.25042 | 5372 ft | 283 kts | 305° |
| 2026-04-24 22:37 | -2.46482 | -44.26678 | 6196 ft | 286 kts | 306° |
| 2026-04-24 22:37 | -2.45358 | -44.28343 | 7024 ft | 290 kts | 306° |
| 2026-04-24 22:37 | -2.44241 | -44.29995 | 7817 ft | 294 kts | 305° |
| 2026-04-24 22:37 | -2.43201 | -44.31764 | 8612 ft | 298 kts | 291° |
| 2026-04-24 22:38 | -2.42890 | -44.33807 | 9373 ft | 303 kts | 265° |
| 2026-04-24 22:38 | -2.43459 | -44.35848 | 10140 ft | 306 kts | 241° |
| 2026-04-24 22:38 | -2.44807 | -44.37508 | 10637 ft | 316 kts | 216° |
| 2026-04-24 22:38 | -2.46810 | -44.38494 | 10970 ft | 329 kts | 191° |
| 2026-04-24 22:39 | -2.49155 | -44.38522 | 11280 ft | 341 kts | 166° |
| 2026-04-24 22:39 | -2.51472 | -44.37937 | 11799 ft | 350 kts | 167° |
| 2026-04-24 22:39 | -2.53933 | -44.37974 | 12423 ft | 360 kts | 193° |
| 2026-04-24 22:39 | -2.56198 | -44.39024 | 13119 ft | 365 kts | 211° |
| 2026-04-24 22:40 | -2.58304 | -44.40512 | 13675 ft | 372 kts | 215° |
| 2026-04-24 22:40 | -2.60404 | -44.42099 | 14260 ft | 378 kts | 215° |
| 2026-04-24 22:40 | -2.62517 | -44.43679 | 14837 ft | 382 kts | 214° |
| 2026-04-24 22:40 | -2.64683 | -44.45264 | 15427 ft | 386 kts | 214° |
| 2026-04-24 22:41 | -2.66873 | -44.46844 | 16016 ft | 390 kts | 213° |
| 2026-04-24 22:41 | -2.69077 | -44.48417 | 16563 ft | 394 kts | 213° |
| 2026-04-24 22:41 | -2.71333 | -44.50018 | 17117 ft | 398 kts | 213° |
| 2026-04-24 22:41 | -2.73614 | -44.51632 | 17659 ft | 402 kts | 212° |
| 2026-04-24 22:42 | -2.75908 | -44.53253 | 18183 ft | 405 kts | 212° |
| 2026-04-24 22:42 | -2.78220 | -44.54884 | 18705 ft | 408 kts | 212° |
| 2026-04-24 22:42 | -2.80538 | -44.56522 | 19214 ft | 410 kts | 212° |
| 2026-04-24 22:42 | -2.82871 | -44.58170 | 19698 ft | 413 kts | 212° |
| 2026-04-24 22:43 | -2.85241 | -44.59844 | 20179 ft | 416 kts | 212° |
| 2026-04-24 22:43 | -2.87608 | -44.61515 | 20644 ft | 418 kts | 212° |
| 2026-04-24 22:43 | -2.89993 | -44.63200 | 21101 ft | 421 kts | 212° |
| 2026-04-24 22:43 | -2.92378 | -44.64887 | 21550 ft | 423 kts | 212° |
| 2026-04-24 22:44 | -2.94807 | -44.66604 | 21970 ft | 426 kts | 212° |
| 2026-04-24 22:44 | -2.97229 | -44.68317 | 22391 ft | 428 kts | 212° |
| 2026-04-24 22:44 | -2.99660 | -44.70034 | 22796 ft | 431 kts | 212° |
| 2026-04-24 22:44 | -3.02087 | -44.71848 | 23187 ft | 436 kts | 218° |
| 2026-04-24 22:45 | -3.04224 | -44.73986 | 23563 ft | 442 kts | 227° |
| 2026-04-24 22:45 | -3.06034 | -44.76494 | 23949 ft | 447 kts | 237° |
| 2026-04-24 22:45 | -3.07580 | -44.79204 | 24353 ft | 450 kts | 239° |
| 2026-04-24 22:45 | -3.09092 | -44.81982 | 24733 ft | 453 kts | 240° |
| 2026-04-24 22:46 | -3.10601 | -44.84774 | 25087 ft | 457 kts | 240° |
| 2026-04-24 22:46 | -3.12113 | -44.87559 | 25349 ft | 462 kts | 240° |
| 2026-04-24 22:46 | -3.13660 | -44.90393 | 25660 ft | 465 kts | 240° |
| 2026-04-24 22:46 | -3.15218 | -44.93237 | 26013 ft | 468 kts | 240° |
| 2026-04-24 22:47 | -3.16785 | -44.96091 | 26357 ft | 470 kts | 240° |
| 2026-04-24 22:47 | -3.18355 | -44.98949 | 26682 ft | 472 kts | 240° |
| 2026-04-24 22:47 | -3.19940 | -45.01831 | 27016 ft | 474 kts | 240° |
| 2026-04-24 22:47 | -3.21549 | -45.04753 | 27337 ft | 476 kts | 240° |
| 2026-04-24 22:48 | -3.23139 | -45.07641 | 27642 ft | 479 kts | 240° |
| 2026-04-24 22:48 | -3.24743 | -45.10558 | 27942 ft | 481 kts | 240° |
| 2026-04-24 22:48 | -3.26353 | -45.13482 | 28331 ft | 481 kts | 240° |
| 2026-04-24 22:48 | -3.27977 | -45.16432 | 28805 ft | 479 kts | 240° |
| 2026-04-24 22:49 | -3.29562 | -45.19313 | 29268 ft | 477 kts | 240° |
| 2026-04-24 22:49 | -3.31168 | -45.22232 | 29728 ft | 475 kts | 240° |
| 2026-04-24 22:49 | -3.32755 | -45.25118 | 30176 ft | 474 kts | 240° |
| 2026-04-24 22:49 | -3.34341 | -45.28001 | 30620 ft | 473 kts | 240° |
| 2026-04-24 22:50 | -3.35910 | -45.30853 | 31056 ft | 471 kts | 240° |
| 2026-04-24 22:50 | -3.37496 | -45.33736 | 31498 ft | 470 kts | 240° |
| 2026-04-24 22:50 | -3.39052 | -45.36564 | 31921 ft | 468 kts | 240° |
| 2026-04-24 22:50 | -3.40615 | -45.39407 | 32335 ft | 467 kts | 240° |
| 2026-04-24 22:51 | -3.42173 | -45.42240 | 32743 ft | 466 kts | 240° |
| 2026-04-24 22:51 | -3.43750 | -45.45108 | 33190 ft | 465 kts | 240° |
| 2026-04-24 22:51 | -3.45295 | -45.47916 | 33638 ft | 463 kts | 240° |
| 2026-04-24 22:51 | -3.46833 | -45.50713 | 34085 ft | 461 kts | 240° |
| 2026-04-24 22:52 | -3.48383 | -45.53531 | 34516 ft | 459 kts | 240° |
| 2026-04-24 22:52 | -3.49920 | -45.56327 | 34925 ft | 457 kts | 240° |
| 2026-04-24 22:52 | -3.51441 | -45.59097 | 35298 ft | 456 kts | 240° |
| 2026-04-24 22:52 | -3.52967 | -45.61874 | 35642 ft | 455 kts | 240° |
| 2026-04-24 22:53 | -3.54483 | -45.64634 | 35962 ft | 454 kts | 240° |
| 2026-04-24 22:53 | -3.56003 | -45.67399 | 36237 ft | 454 kts | 240° |
| 2026-04-24 22:53 | -3.57514 | -45.70148 | 36459 ft | 454 kts | 241° |
| 2026-04-24 22:53 | -3.59049 | -45.72942 | 36657 ft | 455 kts | 241° |
| 2026-04-24 22:54 | -3.60559 | -45.75690 | 36841 ft | 456 kts | 241° |
| 2026-04-24 22:54 | -3.62097 | -45.78491 | 37034 ft | 457 kts | 241° |
| 2026-04-24 22:54 | -3.63623 | -45.81268 | 37215 ft | 457 kts | 241° |
| 2026-04-24 22:54 | -3.65149 | -45.84048 | 37378 ft | 458 kts | 241° |
| 2026-04-24 22:55 | -3.66696 | -45.86864 | 37528 ft | 459 kts | 241° |
| 2026-04-24 22:55 | -3.68214 | -45.89629 | 37679 ft | 460 kts | 241° |
| 2026-04-24 22:55 | -3.69758 | -45.92442 | 37832 ft | 460 kts | 241° |
| 2026-04-24 22:55 | -3.71297 | -45.95245 | 37910 ft | 461 kts | 241° |
| 2026-04-24 22:56 | -3.74384 | -46.00868 | 37913 ft | 461 kts | 241° |
| 2026-04-24 22:56 | -3.77482 | -46.06513 | 37920 ft | 462 kts | 241° |